Time;durP1;ratioP1;P1;durP2;ratioP2;P2;SDS_P1;SDS_P2;PMS_P1;PMS_P2;Temp;Humidity;BMP_temperature;BMP_pressure;BME280_temperature;BME280_humidity;BME280_pressure;Samples;Min_cycle;Max_cycle;Signal;HPM_P1;HPM_P2
2022/02/03 00:00:25;;;;;;;11.35;3.90;;;9.30;85.10;;;;;;4928482;28;20206;-78
2022/02/03 00:24:26;;;;;;;5.95;2.85;;;9.20;84.10;;;;;;4926630;28;20482;-76
2022/02/03 00:27:08;;;;;;;7.65;2.97;;;9.10;84.10;;;;;;4927157;28;20563;-75
2022/02/03 00:32:28;;;;;;;11.20;3.40;;;9.10;84.10;;;;;;4929568;28;20463;-75
2022/02/03 00:35:22;;;;;;;9.00;3.30;;;9.10;84.10;;;;;;4927778;28;20127;-75
2022/02/03 00:51:08;;;;;;;9.98;3.78;;;9.10;84.30;;;;;;4927664;28;20039;-76
2022/02/03 00:53:35;;;;;;;8.88;3.72;;;9.10;84.30;;;;;;4927521;28;20065;-76
2022/02/03 00:56:11;;;;;;;12.73;3.90;;;9.10;84.20;;;;;;4926105;28;20658;-76
2022/02/03 00:58:41;;;;;;;10.30;3.78;;;9.10;84.30;;;;;;4927616;28;20143;-75
2022/02/03 01:01:11;;;;;;;9.93;3.70;;;9.10;84.00;;;;;;4926024;28;20066;-76
2022/02/03 01:03:38;;;;;;;9.60;3.83;;;9.10;84.00;;;;;;4923669;28;20483;-76
2022/02/03 01:06:04;;;;;;;9.10;3.70;;;9.10;84.20;;;;;;4927011;28;20506;-76
2022/02/03 01:08:35;;;;;;;9.35;3.92;;;9.10;84.10;;;;;;4926622;28;20149;-75
2022/02/03 01:11:09;;;;;;;10.43;3.80;;;9.10;83.90;;;;;;4928313;28;20039;-75
2022/02/03 01:13:49;;;;;;;13.90;4.38;;;9.10;83.90;;;;;;4931821;28;21107;-75
2022/02/03 01:43:15;;;;;;;8.73;3.88;;;9.10;83.30;;;;;;4926729;28;20036;-76
2022/02/03 01:44:02;;;;;;;11.50;4.07;;;9.10;83.50;;;;;;4925498;28;20403;-74
2022/02/03 01:46:19;;;;;;;12.40;4.40;;;9.10;83.50;;;;;;4929192;28;20035;-77
2022/02/03 01:54:03;;;;;;;9.93;3.58;;;9.00;83.30;;;;;;4925690;28;20345;-76
2022/02/03 01:56:50;;;;;;;10.48;4.00;;;9.10;83.40;;;;;;4926309;28;20053;-75
2022/02/03 01:59:24;;;;;;;10.80;4.40;;;9.10;83.30;;;;;;4927188;28;20130;-75
2022/02/03 02:01:58;;;;;;;9.93;4.15;;;9.00;83.40;;;;;;4925786;28;20101;-75
2022/02/03 02:04:32;;;;;;;11.60;4.15;;;9.10;83.20;;;;;;4921611;28;20156;-75
2022/02/03 02:06:58;;;;;;;9.30;4.05;;;9.10;83.10;;;;;;4925438;28;20506;-75
2022/02/03 02:09:30;;;;;;;11.30;4.15;;;9.10;83.20;;;;;;4925550;28;20059;-75
2022/02/03 02:12:26;;;;;;;12.57;4.47;;;9.10;83.20;;;;;;4936143;28;20047;-76
2022/02/03 02:15:33;;;;;;;10.43;4.15;;;9.10;83.20;;;;;;4919973;28;20035;-77
2022/02/03 02:18:35;;;;;;;8.35;3.65;;;9.10;83.30;;;;;;4921311;28;20139;-76
2022/02/03 02:38:10;;;;;;;14.27;4.80;;;9.10;83.00;;;;;;4924776;28;20039;-75
2022/02/03 02:43:57;;;;;;;10.63;4.22;;;9.00;83.00;;;;;;4942880;28;20566;-76
2022/02/03 02:46:45;;;;;;;9.00;4.15;;;9.00;83.10;;;;;;4939172;28;20043;-75
2022/02/03 02:49:23;;;;;;;15.63;4.43;;;9.00;83.20;;;;;;4925211;28;20111;-76
2022/02/03 02:51:57;;;;;;;9.68;3.97;;;9.00;83.10;;;;;;4928156;28;20058;-76
2022/02/03 02:54:57;;;;;;;6.55;3.67;;;9.00;83.10;;;;;;4957156;28;20387;-75
2022/02/03 03:34:00;;;;;;;13.38;7.63;;;8.90;82.70;;;;;;4925952;28;20059;-75
2022/02/03 03:36:30;;;;;;;14.10;8.50;;;8.90;82.80;;;;;;4929280;28;20035;-75
2022/02/03 03:38:57;;;;;;;17.38;9.05;;;8.90;82.90;;;;;;4926920;28;20443;-75
2022/02/03 03:41:26;;;;;;;15.85;8.80;;;8.90;82.90;;;;;;4943181;28;20127;-74
2022/02/03 03:44:05;;;;;;;15.30;8.50;;;8.80;82.90;;;;;;4928099;28;20036;-75
2022/02/03 03:46:36;;;;;;;14.80;8.85;;;8.80;82.80;;;;;;4928906;28;20051;-75
2022/02/03 03:49:12;;;;;;;15.13;8.55;;;8.90;82.90;;;;;;4929727;28;20047;-76
2022/02/03 03:51:47;;;;;;;13.18;8.90;;;8.90;82.80;;;;;;4942353;28;20040;-75
2022/02/03 03:54:30;;;;;;;16.42;9.65;;;8.80;83.00;;;;;;4922703;28;20084;-75
2022/02/03 03:57:18;;;;;;;16.67;10.10;;;8.80;83.20;;;;;;4928028;28;20036;-77
2022/02/03 04:43:45;;;;;;;17.60;11.48;;;8.70;83.60;;;;;;4927608;28;20052;-77
2022/02/03 04:50:58;;;;;;;17.83;12.57;;;8.70;83.70;;;;;;4928071;28;20130;-75
2022/02/03 05:02:07;;;;;;;22.55;14.13;;;8.70;83.60;;;;;;4919933;28;20043;-76
2022/02/03 05:07:36;;;;;;;21.30;14.07;;;8.70;83.70;;;;;;4925144;28;20053;-75
2022/02/03 05:10:40;;;;;;;23.45;13.93;;;8.70;83.60;;;;;;4924065;28;20506;-76
2022/02/03 05:25:30;;;;;;;21.60;13.70;;;8.60;83.60;;;;;;4911667;28;20047;-76
2022/02/03 05:35:07;;;;;;;18.48;12.18;;;8.60;83.30;;;;;;4920368;29;20106;-77
2022/02/03 05:44:02;;;;;;;17.90;12.10;;;8.60;82.60;;;;;;4896376;28;20106;-79
2022/02/03 06:03:18;;;;;;;17.77;11.07;;;8.60;82.30;;;;;;4922841;28;20155;-77
2022/02/03 06:08:22;;;;;;;19.75;10.35;;;8.50;82.50;;;;;;4920103;28;20040;-77
2022/02/03 06:16:36;;;;;;;13.38;8.98;;;8.50;82.40;;;;;;4916585;28;20036;-76
2022/02/03 06:24:06;;;;;;;18.42;10.07;;;8.50;82.40;;;;;;4917569;28;20067;-75
2022/02/03 06:29:23;;;;;;;17.40;9.98;;;8.50;82.40;;;;;;4915200;28;20191;-75
2022/02/03 06:31:51;;;;;;;17.13;10.20;;;8.50;82.40;;;;;;4934746;28;20446;-75
2022/02/03 06:34:18;;;;;;;18.55;10.88;;;8.50;82.40;;;;;;4922861;28;20032;-77
2022/02/03 06:36:45;;;;;;;19.90;11.43;;;8.50;82.50;;;;;;4936511;28;20040;-75
2022/02/03 06:39:28;;;;;;;18.33;12.90;;;8.50;82.60;;;;;;4970044;28;20402;-74
2022/02/03 06:41:58;;;;;;;20.88;12.88;;;8.50;82.40;;;;;;4929943;28;20039;-75
2022/02/03 06:44:32;;;;;;;20.80;13.13;;;8.50;82.30;;;;;;4937656;28;20067;-74
2022/02/03 06:47:02;;;;;;;22.00;13.40;;;8.40;82.50;;;;;;4937748;28;20064;-75
2022/02/03 06:52:01;;;;;;;24.23;14.10;;;8.40;82.60;;;;;;4934326;28;20055;-77
2022/02/03 06:54:37;;;;;;;23.42;14.10;;;8.40;82.60;;;;;;4922759;28;20046;-77
2022/02/03 06:57:08;;;;;;;25.83;13.82;;;8.40;82.70;;;;;;4929374;28;20044;-76
2022/02/03 06:59:44;;;;;;;20.88;13.63;;;8.40;82.50;;;;;;4943304;28;20040;-78
2022/02/03 07:02:09;;;;;;;27.58;14.90;;;8.30;82.40;;;;;;4929461;28;20067;-78
2022/02/03 07:04:44;;;;;;;26.63;14.30;;;8.40;82.20;;;;;;4929487;28;20090;-77
2022/02/03 07:07:15;;;;;;;25.10;13.63;;;8.40;82.10;;;;;;4925837;28;20131;-77
2022/02/03 07:09:43;;;;;;;21.48;12.90;;;8.40;82.30;;;;;;4927274;28;20403;-78
2022/02/03 07:12:09;;;;;;;19.58;11.65;;;8.40;82.00;;;;;;4929037;28;20408;-76
2022/02/03 07:14:36;;;;;;;17.80;9.80;;;8.40;81.60;;;;;;4929313;28;20488;-76
2022/02/03 07:17:03;;;;;;;17.25;9.25;;;8.40;81.50;;;;;;4929657;28;20471;-78
2022/02/03 07:19:29;;;;;;;19.85;9.40;;;8.40;81.00;;;;;;4925674;28;20047;-75
2022/02/03 07:21:54;;;;;;;14.30;10.43;;;8.40;80.80;;;;;;4942149;28;20032;-78
2022/02/03 07:24:20;;;;;;;18.50;9.30;;;8.40;80.70;;;;;;4927908;28;20051;-78
2022/02/03 07:26:46;;;;;;;18.67;11.80;;;8.40;80.50;;;;;;4928343;28;20048;-76
2022/02/03 07:29:12;;;;;;;24.83;14.25;;;8.40;80.80;;;;;;4926828;28;20048;-76
2022/02/03 07:31:38;;;;;;;24.80;13.85;;;8.40;81.10;;;;;;4931832;28;20036;-76
2022/02/03 07:34:10;;;;;;;22.02;13.20;;;8.40;81.40;;;;;;4933344;28;20390;-75
2022/02/03 07:36:37;;;;;;;17.67;12.20;;;8.40;81.70;;;;;;4929045;28;20028;-75
2022/02/03 07:39:04;;;;;;;17.50;11.50;;;8.30;81.90;;;;;;4927988;28;20122;-69
2022/02/03 07:41:30;;;;;;;20.05;11.95;;;8.30;82.00;;;;;;4925441;28;20048;-69
2022/02/03 07:43:56;;;;;;;23.35;12.23;;;8.40;81.90;;;;;;4922507;28;20100;-69
2022/02/03 07:46:21;;;;;;;17.92;11.32;;;8.30;82.00;;;;;;4926671;28;20048;-70
2022/02/03 07:48:51;;;;;;;23.27;12.10;;;8.30;81.90;;;;;;4928168;28;20050;-72
2022/02/03 07:51:17;;;;;;;18.88;11.25;;;8.40;81.90;;;;;;4928627;28;20075;-69
2022/02/03 07:53:43;;;;;;;19.10;11.50;;;8.40;82.00;;;;;;4925716;28;20070;-69
2022/02/03 07:56:09;;;;;;;21.50;11.20;;;8.40;81.90;;;;;;4926743;28;20110;-69
2022/02/03 07:58:34;;;;;;;19.88;10.77;;;8.40;81.90;;;;;;4929024;28;20096;-70
2022/02/03 08:01:00;;;;;;;21.02;10.85;;;8.40;81.90;;;;;;4928945;28;20043;-69
2022/02/03 08:03:26;;;;;;;18.85;10.57;;;8.40;81.80;;;;;;4934262;28;20592;-70
2022/02/03 08:05:59;;;;;;;21.40;11.68;;;8.40;81.90;;;;;;4926815;28;20035;-69
2022/02/03 08:08:31;;;;;;;19.95;10.48;;;8.40;81.90;;;;;;4942619;28;20403;-70
2022/02/03 08:11:01;;;;;;;26.40;11.88;;;8.40;81.90;;;;;;4940996;28;20040;-70
2022/02/03 08:13:34;;;;;;;24.23;11.98;;;8.40;81.90;;;;;;4928087;28;20047;-70
2022/02/03 08:16:07;;;;;;;19.77;12.10;;;8.40;81.60;;;;;;4926428;28;20569;-70
2022/02/03 08:18:34;;;;;;;20.75;11.77;;;8.40;81.50;;;;;;4928211;28;20039;-69
2022/02/03 08:21:04;;;;;;;21.17;12.38;;;8.50;81.70;;;;;;4928317;28;20478;-71
2022/02/03 08:28:54;;;;;;;22.85;12.50;;;8.50;81.40;;;;;;4926442;28;20398;-70
2022/02/03 08:31:38;;;;;;;21.33;11.48;;;8.50;81.40;;;;;;4927578;28;20070;-71
2022/02/03 08:34:04;;;;;;;27.02;12.48;;;8.50;81.20;;;;;;4926021;28;20040;-70
2022/02/03 08:36:34;;;;;;;18.40;12.18;;;8.50;81.30;;;;;;4929548;28;20132;-72
2022/02/03 08:39:05;;;;;;;20.77;10.88;;;8.60;81.20;;;;;;4901204;28;21073;-69
2022/02/03 08:41:31;;;;;;;20.95;11.15;;;8.60;81.10;;;;;;4921775;28;20035;-70
2022/02/03 08:43:56;;;;;;;18.30;10.65;;;8.60;80.90;;;;;;4922233;28;20058;-72
2022/02/03 08:46:25;;;;;;;20.02;11.35;;;8.60;80.90;;;;;;4922705;28;20403;-72
2022/02/03 08:48:51;;;;;;;20.35;11.15;;;8.50;80.80;;;;;;4918806;28;20067;-70
2022/02/03 08:51:17;;;;;;;21.95;10.63;;;8.60;80.50;;;;;;4924783;28;20590;-70
2022/02/03 08:53:48;;;;;;;16.95;10.40;;;8.50;80.60;;;;;;4921297;28;20098;-70
2022/02/03 08:59:08;;;;;;;19.63;10.45;;;8.50;80.40;;;;;;4920682;28;20067;-72
2022/02/03 09:36:51;;;;;;;22.38;12.45;;;8.70;78.20;;;;;;4927406;28;20416;-71
2022/02/03 09:50:18;;;;;;;21.00;10.68;;;8.80;78.50;;;;;;4919660;28;20040;-73
2022/02/03 09:51:17;;;;;;;28.02;10.38;;;8.80;78.30;;;;;;4919824;28;20114;-70
2022/02/03 09:58:27;;;;;;;15.60;7.37;;;8.80;78.50;;;;;;4923768;28;20125;-71
2022/02/03 10:03:38;;;;;;;18.40;7.88;;;8.80;78.60;;;;;;4923049;28;20047;-72
2022/02/03 10:06:12;;;;;;;16.15;8.85;;;8.80;78.70;;;;;;4921616;28;20688;-70
2022/02/03 10:08:49;;;;;;;18.73;8.70;;;8.80;78.70;;;;;;4923615;28;20036;-70
2022/02/03 10:11:23;;;;;;;19.50;8.45;;;8.80;78.90;;;;;;4921029;28;20028;-73
2022/02/03 10:13:50;;;;;;;;;;;8.70;79.00;;;;;;4922061;28;20039;-70
2022/02/03 10:16:18;;;;;;;16.85;8.48;;;8.80;79.10;;;;;;4922022;28;20318;-72
2022/02/03 10:18:46;;;;;;;15.93;8.38;;;8.80;78.90;;;;;;4916882;28;20036;-72
2022/02/03 10:21:17;;;;;;;17.80;10.32;;;8.80;79.10;;;;;;4910487;28;20047;-70
2022/02/03 10:23:58;;;;;;;29.63;13.02;;;8.90;79.40;;;;;;4919574;28;20517;-71
2022/02/03 10:26:33;;;;;;;20.05;10.98;;;9.00;79.00;;;;;;4932696;28;20040;-70
2022/02/03 10:29:00;;;;;;;25.05;11.70;;;9.00;79.00;;;;;;4912839;28;20028;-71
2022/02/03 10:31:33;;;;;;;20.15;9.50;;;9.10;78.80;;;;;;4933037;28;20621;-72
2022/02/03 10:34:08;;;;;;;21.90;10.10;;;9.10;78.40;;;;;;4911604;28;20836;-71
2022/02/03 10:36:57;;;;;;;18.15;9.70;;;9.20;78.50;;;;;;4913921;28;20044;-70
2022/02/03 11:09:51;;;;;;;17.00;8.85;;;9.40;78.00;;;;;;4924566;28;20099;-72
2022/02/03 11:11:43;;;;;;;18.58;8.48;;;9.40;78.00;;;;;;4933932;28;20036;-70
2022/02/03 11:14:10;;;;;;;17.15;8.35;;;9.40;78.20;;;;;;4925759;28;20035;-70
2022/02/03 11:16:38;;;;;;;23.35;9.60;;;9.50;78.00;;;;;;4920729;28;20410;-72
2022/02/03 11:19:11;;;;;;;22.90;9.15;;;9.50;78.00;;;;;;4937074;28;20079;-73
2022/02/03 11:21:37;;;;;;;19.38;9.43;;;9.40;77.80;;;;;;4926007;28;20051;-71
2022/02/03 11:24:16;;;;;;;19.83;8.43;;;9.40;77.90;;;;;;4939927;28;20052;-71
2022/02/03 12:01:34;;;;;;;20.33;9.98;;;9.10;79.60;;;;;;4916960;28;20437;-70
2022/02/03 12:16:04;;;;;;;20.27;11.95;;;9.10;79.80;;;;;;4920668;28;21095;-70
2022/02/03 12:20:58;;;;;;;18.65;10.57;;;9.00;80.40;;;;;;4927450;28;20133;-70
2022/02/03 12:23:59;;;;;;;20.27;11.65;;;9.00;80.50;;;;;;4924109;28;20052;-69
2022/02/03 12:29:04;;;;;;;23.33;10.95;;;9.20;80.10;;;;;;4918105;28;20043;-72
2022/02/03 12:39:56;;;;;;;23.55;10.63;;;9.30;80.60;;;;;;4926164;28;20078;-70
2022/02/03 12:45:23;;;;;;;19.20;10.45;;;9.50;80.30;;;;;;4924162;28;20040;-71
2022/02/03 12:48:10;;;;;;;20.70;11.18;;;9.50;79.20;;;;;;4925607;28;20044;-71
2022/02/03 12:50:40;;;;;;;20.85;10.40;;;9.60;79.10;;;;;;4924806;28;20048;-70
2022/02/03 12:53:06;;;;;;;19.83;10.27;;;9.60;79.20;;;;;;4925403;28;20479;-74
2022/02/03 12:55:33;;;;;;;19.88;10.38;;;9.60;78.90;;;;;;4928070;28;20039;-70
2022/02/03 12:58:15;;;;;;;17.27;11.05;;;9.60;79.20;;;;;;4923541;28;20139;-72
2022/02/03 13:00:55;;;;;;;14.82;10.30;;;9.60;79.40;;;;;;4924818;28;20043;-70
2022/02/03 13:03:44;;;;;;;19.23;11.55;;;9.40;79.30;;;;;;4921939;28;20079;-70
2022/02/03 13:06:17;;;;;;;17.25;11.02;;;9.30;79.80;;;;;;4922760;28;20470;-69
2022/02/03 13:08:48;;;;;;;16.50;10.98;;;9.30;80.30;;;;;;4921152;28;20074;-71
2022/02/03 13:11:24;;;;;;;16.98;10.95;;;9.30;80.80;;;;;;4927020;28;20046;-71
2022/02/03 13:16:31;;;;;;;20.15;11.73;;;9.20;81.20;;;;;;4919370;28;20044;-69
2022/02/03 13:19:11;;;;;;;17.30;10.52;;;9.20;81.50;;;;;;4917953;28;20118;-69
2022/02/03 13:26:54;;;;;;;17.02;11.95;;;9.20;82.10;;;;;;4921750;28;20412;-70
2022/02/03 13:29:29;;;;;;;19.90;11.20;;;9.10;82.50;;;;;;4918046;28;20039;-72
2022/02/03 13:32:05;;;;;;;;;;;9.10;82.60;;;;;;4938772;28;20044;-69
2022/02/03 13:35:12;;;;;;;20.73;12.45;;;9.10;82.70;;;;;;4922508;28;20006;-71
2022/02/03 13:37:33;;;;;;;20.35;12.45;;;9.10;83.00;;;;;;4926452;28;20522;-70
2022/02/03 13:40:09;;;;;;;19.33;13.02;;;9.10;83.10;;;;;;4920401;28;20043;-71
2022/02/03 13:42:36;;;;;;;19.63;13.30;;;9.00;83.50;;;;;;4924144;28;20843;-69
2022/02/03 13:45:07;;;;;;;19.83;13.45;;;9.00;83.80;;;;;;4922583;28;20038;-73
2022/02/03 13:47:37;;;;;;;15.65;12.32;;;9.10;84.00;;;;;;4925940;28;20157;-72
2022/02/03 13:50:22;;;;;;;18.05;12.57;;;9.10;84.30;;;;;;4924167;28;20039;-72
2022/02/03 14:12:57;;;;;;;;;;;9.20;84.60;;;;;;4923564;28;20520;-70
2022/02/03 14:20:24;;;;;;;17.42;12.93;;;9.50;84.50;;;;;;4927757;28;20443;-72
2022/02/03 14:23:25;;;;;;;21.92;14.75;;;9.50;83.80;;;;;;4925749;28;20043;-72
2022/02/03 14:28:32;;;;;;;18.45;13.35;;;9.40;84.00;;;;;;4924399;28;20080;-70
2022/02/03 14:31:03;;;;;;;18.52;13.23;;;9.40;84.30;;;;;;4955564;28;20396;-71
2022/02/03 14:33:34;;;;;;;18.83;14.00;;;9.40;84.40;;;;;;4917271;28;20058;-72
2022/02/03 14:36:24;;;;;;;18.75;14.07;;;9.50;84.30;;;;;;4919369;28;20032;-72
2022/02/03 14:43:37;;;;;;;18.58;13.45;;;9.50;84.10;;;;;;4918945;28;20040;-71
2022/02/03 14:46:05;;;;;;;18.08;13.50;;;9.60;83.70;;;;;;4917169;28;20040;-73
2022/02/03 14:48:31;;;;;;;19.02;12.98;;;9.50;83.70;;;;;;4930023;28;20023;-73
2022/02/03 14:50:59;;;;;;;18.90;12.65;;;9.40;83.80;;;;;;4936567;28;20036;-71
2022/02/03 14:53:47;;;;;;;17.40;12.70;;;9.40;83.90;;;;;;4924164;28;20182;-70
2022/02/03 14:58:58;;;;;;;16.85;13.00;;;9.40;84.30;;;;;;4919852;28;20414;-70
2022/02/03 15:01:25;;;;;;;18.48;13.32;;;9.50;84.20;;;;;;4925054;28;20035;-73
2022/02/03 15:03:55;;;;;;;20.30;13.57;;;9.50;84.20;;;;;;4926436;28;20202;-71
2022/02/03 15:06:24;;;;;;;17.48;12.98;;;9.50;84.30;;;;;;4923867;28;20583;-71
2022/02/03 15:14:17;;;;;;;18.13;13.10;;;9.40;84.20;;;;;;4927421;28;20065;-71
2022/02/03 15:16:43;;;;;;;19.25;13.13;;;9.30;84.50;;;;;;4926222;28;20487;-72
2022/02/03 15:19:08;;;;;;;17.02;13.23;;;9.20;84.40;;;;;;4932032;28;20027;-72
2022/02/03 15:21:35;;;;;;;18.15;12.80;;;9.30;84.50;;;;;;4927302;28;20486;-70
2022/02/03 15:24:03;;;;;;;18.15;13.10;;;9.20;84.60;;;;;;4925083;28;20677;-71
2022/02/03 15:26:29;;;;;;;18.60;13.20;;;9.10;85.00;;;;;;4925890;28;20055;-72
2022/02/03 15:28:55;;;;;;;19.60;13.13;;;9.10;85.10;;;;;;4946123;28;20352;-71
2022/02/03 15:31:26;;;;;;;19.35;12.90;;;9.20;84.80;;;;;;4924449;28;20106;-71
2022/02/03 15:33:58;;;;;;;17.13;12.93;;;9.20;85.00;;;;;;4928133;28;20520;-70
2022/02/03 15:36:24;;;;;;;16.08;11.57;;;9.30;84.60;;;;;;4924123;28;20038;-73
2022/02/03 15:38:50;;;;;;;16.25;12.32;;;9.40;84.50;;;;;;4927790;28;20036;-74
2022/02/03 15:41:35;;;;;;;16.88;13.02;;;9.40;84.40;;;;;;4927550;28;20098;-73
2022/02/03 15:44:01;;;;;;;17.70;13.15;;;9.40;84.00;;;;;;4926085;28;20059;-73
2022/02/03 15:46:30;;;;;;;17.33;13.05;;;9.40;83.80;;;;;;4925154;28;20139;-71
2022/02/03 16:18:07;;;;;;;16.27;11.63;;;9.10;85.00;;;;;;4923861;28;20035;-73
2022/02/03 16:20:39;;;;;;;14.50;11.02;;;9.10;85.40;;;;;;4921604;28;20050;-70
2022/02/03 16:52:52;;;;;;;23.80;17.52;;;8.60;89.30;;;;;;4918430;28;20847;-71
2022/02/03 16:55:22;;;;;;;25.00;18.13;;;8.60;89.50;;;;;;4925976;28;20489;-72
2022/02/03 16:57:50;;;;;;;26.13;17.98;;;8.60;89.60;;;;;;4913827;28;20463;-71
2022/02/03 17:00:17;;;;;;;25.23;18.02;;;8.70;89.60;;;;;;4915011;28;20086;-73
2022/02/03 17:02:43;;;;;;;25.08;18.50;;;8.60;89.60;;;;;;4929873;28;20412;-71
2022/02/03 17:05:09;;;;;;;23.08;17.02;;;8.60;89.60;;;;;;4918792;28;20321;-72
2022/02/03 17:07:35;;;;;;;24.05;16.92;;;8.60;89.60;;;;;;4905371;28;20053;-71
2022/02/03 17:10:02;;;;;;;22.27;16.13;;;8.60;89.50;;;;;;4907016;28;20375;-72
2022/02/03 17:12:27;;;;;;;21.10;15.57;;;8.60;89.30;;;;;;4911063;28;20448;-72
2022/02/03 17:14:53;;;;;;;21.33;14.32;;;8.60;89.20;;;;;;4912299;28;20068;-70
2022/02/03 17:17:20;;;;;;;18.67;13.73;;;8.60;89.00;;;;;;4922532;28;20031;-72
2022/02/03 17:19:50;;;;;;;21.02;14.18;;;8.60;88.90;;;;;;4908901;28;20162;-73
2022/02/03 17:22:20;;;;;;;21.00;14.82;;;8.60;88.70;;;;;;4914141;28;20117;-71
2022/02/03 17:25:01;;;;;;;20.00;13.30;;;8.60;88.50;;;;;;4913362;28;20044;-72
2022/02/03 17:27:33;;;;;;;19.13;13.30;;;8.60;88.40;;;;;;4911915;28;20138;-71
2022/02/03 17:30:09;;;;;;;18.95;13.40;;;8.60;88.30;;;;;;4916037;28;20110;-76
2022/02/03 18:08:44;;;;;;;24.05;16.15;;;8.50;89.10;;;;;;4907118;28;20068;-75
2022/02/03 18:19:46;;;;;;;23.45;16.50;;;8.60;89.60;;;;;;4905921;28;20178;-74
2022/02/03 18:30:29;;;;;;;23.80;17.23;;;8.60;89.50;;;;;;4916119;28;20048;-74
2022/02/03 18:36:07;;;;;;;26.33;18.15;;;8.60;89.40;;;;;;4920390;28;20080;-75
2022/02/03 18:49:55;;;;;;;25.73;17.60;;;8.60;89.40;;;;;;4927511;28;20047;-74
2022/02/03 18:52:29;;;;;;;22.45;17.02;;;8.60;89.50;;;;;;4924882;28;20292;-76
2022/02/03 18:55:10;;;;;;;23.45;16.33;;;8.60;89.40;;;;;;4920160;28;20494;-75
2022/02/03 19:14:16;;;;;;;26.85;17.15;;;8.70;89.20;;;;;;4918023;28;20040;-75
2022/02/03 19:25:19;;;;;;;23.95;17.73;;;8.80;89.00;;;;;;4921346;28;20048;-74
2022/02/03 20:05:46;;;;;;;20.53;13.73;;;8.80;88.90;;;;;;4915186;28;20113;-80
2022/02/03 20:10:45;;;;;;;16.75;12.55;;;8.80;88.90;;;;;;4913270;28;20052;-78
2022/02/03 20:13:11;;;;;;;21.33;15.10;;;8.80;88.80;;;;;;4905970;28;20083;-76
2022/02/03 20:15:39;;;;;;;21.83;14.55;;;8.80;88.80;;;;;;4918722;28;20309;-77
2022/02/03 20:18:05;;;;;;;18.35;12.27;;;8.80;88.90;;;;;;4912884;28;20570;-77
2022/02/03 20:20:32;;;;;;;20.10;12.98;;;8.80;88.90;;;;;;4914567;29;20559;-77
2022/02/03 20:23:01;;;;;;;18.77;13.43;;;8.80;88.90;;;;;;4915855;28;20047;-77
2022/02/03 20:25:28;;;;;;;18.13;13.13;;;8.80;88.90;;;;;;4945738;28;20040;-77
2022/02/03 20:27:53;;;;;;;17.92;11.98;;;8.80;88.80;;;;;;4926230;28;20047;-76
2022/02/03 20:30:19;;;;;;;18.00;12.18;;;8.70;88.90;;;;;;4915387;28;20383;-77
2022/02/03 20:32:45;;;;;;;18.85;12.32;;;8.70;88.90;;;;;;4914030;28;20383;-76
2022/02/03 20:35:11;;;;;;;17.67;12.45;;;8.80;88.90;;;;;;4914394;28;20036;-75
2022/02/03 20:37:38;;;;;;;18.05;13.07;;;8.80;88.80;;;;;;4916007;28;20047;-75
2022/02/03 20:40:05;;;;;;;19.10;13.20;;;8.80;88.80;;;;;;4917876;28;20035;-75
2022/02/03 20:42:31;;;;;;;17.08;12.50;;;8.70;88.90;;;;;;4917531;28;20357;-75
2022/02/03 20:44:56;;;;;;;17.55;12.45;;;8.70;88.90;;;;;;4916549;28;20047;-74
2022/02/03 20:47:24;;;;;;;17.00;11.98;;;8.70;88.90;;;;;;4921941;28;20036;-75
2022/02/03 20:49:50;;;;;;;19.35;12.15;;;8.70;89.00;;;;;;4919095;28;20488;-76
2022/02/03 20:52:18;;;;;;;15.48;12.25;;;8.70;88.90;;;;;;4920332;28;20075;-75
2022/02/03 20:54:45;;;;;;;17.90;12.45;;;8.70;88.90;;;;;;4909549;28;20050;-75
2022/02/03 20:57:11;;;;;;;17.88;13.02;;;8.70;88.70;;;;;;4909716;28;20036;-74
2022/02/03 21:00:23;;;;;;;17.00;12.27;;;8.70;88.70;;;;;;4905818;28;20676;-76
2022/02/03 21:05:11;;;;;;;17.00;12.00;;;8.70;88.90;;;;;;4909731;28;20162;-75
2022/02/03 21:07:38;;;;;;;17.08;12.40;;;8.70;88.80;;;;;;4911383;28;20040;-75
2022/02/03 21:10:07;;;;;;;18.67;12.75;;;8.70;88.80;;;;;;4914103;28;20036;-76
2022/02/03 21:12:32;;;;;;;17.27;12.27;;;8.70;88.80;;;;;;4913700;28;20040;-76
2022/02/03 21:14:59;;;;;;;15.93;11.52;;;8.70;88.90;;;;;;4927196;28;20051;-75
2022/02/03 21:17:28;;;;;;;17.05;11.45;;;8.70;88.90;;;;;;4915298;28;20054;-75
2022/02/03 21:19:54;;;;;;;16.13;11.63;;;8.70;88.70;;;;;;4913498;28;20569;-74
2022/02/03 21:22:21;;;;;;;15.43;11.40;;;8.70;88.90;;;;;;4912312;28;20044;-78
2022/02/03 21:24:48;;;;;;;17.85;12.60;;;8.70;88.90;;;;;;4946574;28;20083;-76
2022/02/03 21:27:18;;;;;;;14.52;11.00;;;8.70;88.80;;;;;;4917075;28;20052;-76
2022/02/03 21:29:44;;;;;;;17.23;11.85;;;8.70;88.80;;;;;;4932421;28;20225;-76
2022/02/03 21:32:10;;;;;;;15.02;10.77;;;8.60;88.80;;;;;;4915112;28;20036;-76
2022/02/03 21:34:36;;;;;;;12.93;10.10;;;8.70;88.70;;;;;;4921252;28;20526;-75
2022/02/03 21:37:03;;;;;;;15.18;10.52;;;8.70;88.70;;;;;;4927200;28;20043;-76
2022/02/03 21:39:29;;;;;;;14.80;10.07;;;8.70;88.60;;;;;;4917340;28;20055;-77
2022/02/03 21:41:54;;;;;;;15.05;10.43;;;8.70;88.50;;;;;;4923889;28;20036;-76
2022/02/03 21:44:22;;;;;;;15.38;10.40;;;8.70;88.60;;;;;;4922541;28;20044;-76
2022/02/03 21:46:48;;;;;;;15.75;10.50;;;8.70;88.40;;;;;;4925439;28;20042;-76
2022/02/03 21:49:15;;;;;;;15.07;9.82;;;8.70;88.50;;;;;;4928095;28;20036;-76
2022/02/03 21:51:44;;;;;;;14.82;9.25;;;8.70;88.40;;;;;;4926839;28;20063;-76
2022/02/03 21:54:11;;;;;;;14.80;9.80;;;8.70;88.40;;;;;;4922658;28;20372;-76
2022/02/03 21:56:37;;;;;;;18.30;10.70;;;8.70;88.40;;;;;;4920404;28;20601;-76
2022/02/03 21:59:07;;;;;;;15.65;9.70;;;8.70;88.20;;;;;;4921359;28;20091;-76
2022/02/03 22:01:40;;;;;;;14.82;9.88;;;8.70;88.10;;;;;;4912254;28;20518;-75
2022/02/03 22:04:10;;;;;;;15.77;9.90;;;8.70;88.20;;;;;;4922496;28;20051;-76
2022/02/03 22:06:36;;;;;;;12.75;9.55;;;8.70;88.00;;;;;;4953383;28;20032;-75
2022/02/03 22:09:03;;;;;;;13.35;10.07;;;8.70;88.00;;;;;;4926824;28;20740;-75
2022/02/03 22:11:30;;;;;;;15.65;10.27;;;8.70;88.00;;;;;;4924448;28;20123;-76
2022/02/03 22:13:56;;;;;;;14.82;10.23;;;8.80;88.00;;;;;;4933335;28;20834;-76
2022/02/03 22:16:25;;;;;;;15.85;10.10;;;8.80;87.90;;;;;;4943420;28;20067;-76
2022/02/03 22:18:51;;;;;;;14.65;9.85;;;8.80;87.50;;;;;;4931986;28;20046;-76
2022/02/03 22:26:47;;;;;;;12.48;8.63;;;8.80;87.50;;;;;;4930524;28;20483;-75
2022/02/03 22:38:37;;;;;;;11.25;8.98;;;8.80;87.10;;;;;;4923812;28;20094;-76
2022/02/03 22:47:54;;;;;;;13.63;9.13;;;8.80;86.80;;;;;;4925543;28;20367;-75
2022/02/03 22:50:20;;;;;;;12.95;9.30;;;8.80;86.80;;;;;;4924819;28;20178;-76
2022/02/03 22:52:46;;;;;;;14.50;9.07;;;8.80;86.60;;;;;;4923770;28;20063;-76
2022/02/03 22:55:13;;;;;;;12.90;9.45;;;8.70;86.60;;;;;;4923451;28;20047;-77
2022/02/03 22:57:43;;;;;;;13.95;9.85;;;8.70;86.60;;;;;;4955657;28;20050;-76
2022/02/03 23:00:14;;;;;;;15.35;9.70;;;8.70;86.60;;;;;;4921797;28;20514;-76
2022/02/03 23:02:41;;;;;;;14.95;9.38;;;8.70;86.50;;;;;;4924226;28;20047;-76
2022/02/03 23:05:07;;;;;;;12.55;8.75;;;8.70;86.30;;;;;;4923971;28;20039;-76
2022/02/03 23:08:03;;;;;;;17.27;9.38;;;8.70;86.10;;;;;;4923849;28;20381;-74
2022/02/03 23:10:42;;;;;;;14.23;9.23;;;8.70;86.20;;;;;;4922768;28;20044;-75
2022/02/03 23:13:22;;;;;;;12.55;8.40;;;8.70;86.10;;;;;;4922929;28;20032;-76
2022/02/03 23:16:02;;;;;;;13.90;8.27;;;8.80;86.10;;;;;;4925043;28;20035;-75
2022/02/03 23:18:49;;;;;;;10.52;7.55;;;8.80;85.90;;;;;;4936779;28;20115;-75
2022/02/03 23:23:41;;;;;;;14.23;7.95;;;8.70;85.70;;;;;;4927146;28;20215;-75
2022/02/03 23:26:08;;;;;;;12.77;7.00;;;8.70;85.60;;;;;;4927387;28;20122;-76
2022/02/03 23:28:35;;;;;;;11.00;6.13;;;8.70;85.60;;;;;;4926014;28;20043;-75
2022/02/03 23:31:00;;;;;;;12.27;6.35;;;8.70;85.50;;;;;;4926068;28;20040;-76
2022/02/03 23:33:29;;;;;;;11.23;6.10;;;8.80;85.50;;;;;;4920353;28;20129;-75
2022/02/03 23:35:55;;;;;;;9.75;6.10;;;8.70;85.20;;;;;;4925700;28;20032;-75
2022/02/03 23:38:37;;;;;;;10.88;5.78;;;8.70;85.20;;;;;;4925912;28;20410;-76
